BAW688 EGLL-LGSR
Flight info
| Callsign | BAW688 |
|---|---|
| Flight time | 3h 19m |
| Altitude | 39000 |
| Route | DET2F DET L6 DVR UL9 KONAN DCT KOK DCT SISGA DCT RITAX DCT KRH DCT KUNOD DCT GEDSO DCT VEKEN DCT MSR DCT PINDO DCT KEA UL607 GENDO L607 NETIS M601 PEXAN PEXAN1D |
| Aircraft | A20N/M-SDGIJ1LRWXY/SB1 |
Departure
| Time | 2026-05-06 23:00 |
|---|---|
| Airport | London Heathrow Airport (EGLL) |
Arrival
| Time | 2026-05-07 02:20 |
|---|---|
| Airport | Santorini International Airport (LGSR) |
| Time | Latitude | Longitude | Altitude | Speed | Heading |
|---|---|---|---|---|---|
| 2026-05-06 23:00 | 51.44906 | -0.31174 | 4257 ft | 264 kts | 99° |
| 2026-05-06 23:00 | 51.44458 | -0.28290 | 5107 ft | 273 kts | 100° |
| 2026-05-06 23:01 | 51.43995 | -0.25309 | 5999 ft | 279 kts | 101° |
| 2026-05-06 23:01 | 51.43522 | -0.22266 | 6910 ft | 283 kts | 101° |
| 2026-05-06 23:01 | 51.43044 | -0.19200 | 7875 ft | 284 kts | 101° |
| 2026-05-06 23:01 | 51.42561 | -0.16107 | 8802 ft | 288 kts | 102° |
| 2026-05-06 23:02 | 51.42071 | -0.12976 | 9709 ft | 292 kts | 101° |
| 2026-05-06 23:02 | 51.41571 | -0.09791 | 10471 ft | 300 kts | 102° |
| 2026-05-06 23:02 | 51.41045 | -0.06423 | 10812 ft | 322 kts | 103° |
| 2026-05-06 23:02 | 51.40478 | -0.02816 | 11099 ft | 344 kts | 102° |
| 2026-05-06 23:03 | 51.39882 | 0.00946 | 11768 ft | 352 kts | 103° |
| 2026-05-06 23:03 | 51.39278 | 0.04756 | 12611 ft | 355 kts | 103° |
| 2026-05-06 23:03 | 51.38667 | 0.08602 | 13422 ft | 358 kts | 103° |
| 2026-05-06 23:03 | 51.38045 | 0.12498 | 14128 ft | 364 kts | 103° |
| 2026-05-06 23:04 | 51.37411 | 0.16471 | 14702 ft | 372 kts | 104° |
| 2026-05-06 23:04 | 51.36769 | 0.20479 | 15485 ft | 372 kts | 104° |
| 2026-05-06 23:04 | 51.36125 | 0.24495 | 16244 ft | 375 kts | 104° |
| 2026-05-06 23:04 | 51.35478 | 0.28519 | 16807 ft | 382 kts | 104° |
| 2026-05-06 23:05 | 51.34807 | 0.32676 | 17392 ft | 387 kts | 104° |
| 2026-05-06 23:05 | 51.34133 | 0.36851 | 18217 ft | 387 kts | 104° |
| 2026-05-06 23:05 | 51.33456 | 0.41027 | 18809 ft | 391 kts | 104° |
| 2026-05-06 23:05 | 51.32765 | 0.45278 | 19355 ft | 398 kts | 104° |
| 2026-05-06 23:06 | 51.32066 | 0.49575 | 19976 ft | 400 kts | 105° |
| 2026-05-06 23:06 | 51.31368 | 0.53853 | 20776 ft | 397 kts | 105° |
| 2026-05-06 23:06 | 51.30667 | 0.58143 | 21320 ft | 401 kts | 105° |
| 2026-05-06 23:06 | 51.29940 | 0.62507 | 21725 ft | 408 kts | 107° |
| 2026-05-06 23:07 | 51.29151 | 0.66866 | 22388 ft | 408 kts | 108° |
| 2026-05-06 23:07 | 51.28341 | 0.71222 | 22977 ft | 411 kts | 108° |
| 2026-05-06 23:07 | 51.27521 | 0.75625 | 23480 ft | 415 kts | 108° |
| 2026-05-06 23:07 | 51.26698 | 0.80062 | 23962 ft | 417 kts | 108° |
| 2026-05-06 23:08 | 51.25875 | 0.84507 | 24499 ft | 418 kts | 108° |
| 2026-05-06 23:08 | 51.25047 | 0.88989 | 24866 ft | 423 kts | 108° |
| 2026-05-06 23:08 | 51.24211 | 0.93509 | 25255 ft | 426 kts | 108° |
| 2026-05-06 23:08 | 51.23368 | 0.98049 | 25757 ft | 426 kts | 107° |
| 2026-05-06 23:09 | 51.22538 | 1.02514 | 26256 ft | 427 kts | 107° |
| 2026-05-06 23:09 | 51.21688 | 1.07078 | 26572 ft | 432 kts | 108° |
| 2026-05-06 23:09 | 51.20828 | 1.11682 | 27032 ft | 433 kts | 108° |
| 2026-05-06 23:09 | 51.19966 | 1.16283 | 27495 ft | 434 kts | 107° |
| 2026-05-06 23:10 | 51.19095 | 1.20923 | 27828 ft | 438 kts | 108° |
| 2026-05-06 23:10 | 51.18216 | 1.25592 | 28159 ft | 441 kts | 108° |
| 2026-05-06 23:10 | 51.17331 | 1.30278 | 28607 ft | 441 kts | 107° |
| 2026-05-06 23:10 | 51.16518 | 1.35004 | 28941 ft | 445 kts | 102° |
| 2026-05-06 23:11 | 51.16056 | 1.39897 | 29220 ft | 449 kts | 95° |
| 2026-05-06 23:11 | 51.15833 | 1.44863 | 29642 ft | 448 kts | 95° |
| 2026-05-06 23:11 | 51.15605 | 1.49811 | 30084 ft | 449 kts | 95° |
| 2026-05-06 23:11 | 51.15368 | 1.54790 | 30315 ft | 452 kts | 95° |
| 2026-05-06 23:12 | 51.15124 | 1.59784 | 30649 ft | 453 kts | 95° |
| 2026-05-06 23:12 | 51.14877 | 1.64806 | 30912 ft | 456 kts | 95° |
| 2026-05-06 23:12 | 51.14626 | 1.69849 | 31245 ft | 456 kts | 95° |
| 2026-05-06 23:12 | 51.14377 | 1.74806 | 31644 ft | 455 kts | 95° |
| 2026-05-06 23:13 | 51.14124 | 1.79825 | 32012 ft | 454 kts | 95° |
| 2026-05-06 23:13 | 51.13868 | 1.84831 | 32419 ft | 453 kts | 95° |
| 2026-05-06 23:13 | 51.13611 | 1.89818 | 32797 ft | 452 kts | 95° |
| 2026-05-06 23:13 | 51.13353 | 1.94792 | 33199 ft | 450 kts | 95° |
| 2026-05-06 23:14 | 51.13093 | 1.99757 | 33555 ft | 449 kts | 95° |
| 2026-05-06 23:14 | 51.12832 | 2.04709 | 33864 ft | 449 kts | 95° |
| 2026-05-06 23:14 | 51.12568 | 2.09671 | 34128 ft | 449 kts | 95° |
| 2026-05-06 23:14 | 51.12303 | 2.14631 | 34351 ft | 450 kts | 95° |
| 2026-05-06 23:15 | 51.12035 | 2.19593 | 34533 ft | 451 kts | 95° |
| 2026-05-06 23:15 | 51.11764 | 2.24571 | 34769 ft | 451 kts | 95° |
| 2026-05-06 23:15 | 51.11491 | 2.29556 | 34961 ft | 452 kts | 96° |
| 2026-05-06 23:15 | 51.11214 | 2.34555 | 35135 ft | 453 kts | 96° |
| 2026-05-06 23:16 | 51.10936 | 2.39547 | 35381 ft | 453 kts | 96° |
| 2026-05-06 23:16 | 51.10657 | 2.44543 | 35572 ft | 454 kts | 96° |
| 2026-05-06 23:16 | 51.10372 | 2.49558 | 35733 ft | 455 kts | 96° |
| 2026-05-06 23:16 | 51.10091 | 2.54501 | 35943 ft | 455 kts | 96° |
| 2026-05-06 23:17 | 51.09759 | 2.59518 | 36081 ft | 456 kts | 100° |
| 2026-05-06 23:17 | 51.09092 | 2.64428 | 36264 ft | 454 kts | 107° |
| 2026-05-06 23:17 | 51.08055 | 2.69165 | 36441 ft | 453 kts | 115° |
| 2026-05-06 23:17 | 51.06676 | 2.73655 | 36573 ft | 453 kts | 120° |
| 2026-05-06 23:18 | 51.05195 | 2.78084 | 36745 ft | 453 kts | 119° |
| 2026-05-06 23:18 | 51.03723 | 2.82516 | 36894 ft | 454 kts | 119° |
| 2026-05-06 23:18 | 51.02254 | 2.86940 | 36902 ft | 451 kts | 120° |
| 2026-05-06 23:19 | 50.99340 | 2.95702 | 36906 ft | 449 kts | 120° |
| 2026-05-06 23:19 | 50.96408 | 3.04463 | 36899 ft | 450 kts | 120° |
| 2026-05-06 23:20 | 50.93468 | 3.13224 | 36896 ft | 449 kts | 120° |
| 2026-05-06 23:20 | 50.90523 | 3.21965 | 36884 ft | 449 kts | 120° |
| 2026-05-06 23:21 | 50.87572 | 3.30692 | 36879 ft | 449 kts | 120° |
| 2026-05-06 23:21 | 50.84625 | 3.39383 | 36879 ft | 448 kts | 120° |
| 2026-05-06 23:22 | 50.81668 | 3.48070 | 36877 ft | 448 kts | 120° |
| 2026-05-06 23:22 | 50.78709 | 3.56734 | 36873 ft | 448 kts | 120° |
| 2026-05-06 23:23 | 50.75756 | 3.65344 | 36873 ft | 449 kts | 120° |
| 2026-05-06 23:23 | 50.72764 | 3.74050 | 36862 ft | 448 kts | 120° |
| 2026-05-06 23:24 | 50.69776 | 3.82707 | 36870 ft | 449 kts | 120° |
| 2026-05-06 23:24 | 50.66801 | 3.91298 | 36868 ft | 449 kts | 120° |
| 2026-05-06 23:25 | 50.63801 | 3.99934 | 36861 ft | 449 kts | 120° |
| 2026-05-06 23:25 | 50.60822 | 4.08587 | 36858 ft | 450 kts | 118° |
| 2026-05-06 23:26 | 50.58183 | 4.17515 | 36855 ft | 450 kts | 116° |
| 2026-05-06 23:26 | 50.55571 | 4.26461 | 36854 ft | 449 kts | 116° |
| 2026-05-06 23:27 | 50.52913 | 4.35349 | 36855 ft | 449 kts | 117° |
| 2026-05-06 23:27 | 50.50235 | 4.44221 | 36858 ft | 449 kts | 117° |
| 2026-05-06 23:28 | 50.47565 | 4.53027 | 36855 ft | 449 kts | 117° |
| 2026-05-06 23:28 | 50.44873 | 4.61875 | 36854 ft | 449 kts | 117° |
| 2026-05-06 23:29 | 50.42179 | 4.70704 | 36843 ft | 449 kts | 117° |
| 2026-05-06 23:29 | 50.39475 | 4.79527 | 36843 ft | 449 kts | 117° |
| 2026-05-06 23:30 | 50.36768 | 4.88331 | 36838 ft | 448 kts | 117° |
| 2026-05-06 23:30 | 50.34053 | 4.97126 | 36837 ft | 448 kts | 117° |
| 2026-05-06 23:31 | 50.31333 | 5.05910 | 36831 ft | 448 kts | 118° |
| 2026-05-06 23:31 | 50.28601 | 5.14701 | 36832 ft | 450 kts | 118° |
| 2026-05-06 23:32 | 50.25859 | 5.23493 | 36829 ft | 450 kts | 118° |
| 2026-05-06 23:32 | 50.23112 | 5.32270 | 36827 ft | 450 kts | 118° |
| 2026-05-06 23:33 | 50.20824 | 5.39556 | 36824 ft | 449 kts | 118° |
| 2026-05-06 23:33 | 50.18062 | 5.48320 | 36821 ft | 450 kts | 118° |
| 2026-05-06 23:34 | 50.15297 | 5.57065 | 36815 ft | 450 kts | 118° |
| 2026-05-06 23:34 | 50.12523 | 5.65808 | 36815 ft | 450 kts | 118° |
| 2026-05-06 23:35 | 50.09742 | 5.74541 | 36808 ft | 449 kts | 118° |
| 2026-05-06 23:35 | 50.06858 | 5.83164 | 36808 ft | 448 kts | 123° |
| 2026-05-06 23:36 | 50.03725 | 5.91555 | 36798 ft | 449 kts | 122° |
| 2026-05-06 23:36 | 50.00631 | 5.99905 | 36799 ft | 448 kts | 122° |
| 2026-05-06 23:37 | 49.97504 | 6.08294 | 36788 ft | 448 kts | 122° |
| 2026-05-06 23:37 | 49.94369 | 6.16661 | 36790 ft | 448 kts | 122° |
| 2026-05-06 23:38 | 49.91225 | 6.25021 | 36772 ft | 448 kts | 123° |
| 2026-05-06 23:38 | 49.88077 | 6.33365 | 36772 ft | 448 kts | 123° |
| 2026-05-06 23:39 | 49.84926 | 6.41695 | 36764 ft | 448 kts | 123° |
| 2026-05-06 23:39 | 49.81768 | 6.50012 | 36761 ft | 448 kts | 123° |
| 2026-05-06 23:40 | 49.78606 | 6.58313 | 36743 ft | 448 kts | 123° |
| 2026-05-06 23:40 | 49.75430 | 6.66627 | 36751 ft | 449 kts | 123° |
| 2026-05-06 23:41 | 49.72247 | 6.74932 | 36747 ft | 449 kts | 123° |
| 2026-05-06 23:41 | 49.69059 | 6.83226 | 36747 ft | 449 kts | 124° |
| 2026-05-06 23:42 | 49.65861 | 6.91519 | 36752 ft | 449 kts | 124° |
| 2026-05-06 23:42 | 49.62658 | 6.99794 | 36751 ft | 449 kts | 124° |
| 2026-05-06 23:43 | 49.59450 | 7.08059 | 36763 ft | 449 kts | 124° |
| 2026-05-06 23:43 | 49.56235 | 7.16316 | 36770 ft | 449 kts | 124° |
| 2026-05-06 23:44 | 49.53021 | 7.24551 | 36768 ft | 448 kts | 124° |
| 2026-05-06 23:44 | 49.49804 | 7.32759 | 36767 ft | 447 kts | 124° |
| 2026-05-06 23:45 | 49.46588 | 7.40941 | 36768 ft | 447 kts | 125° |
| 2026-05-06 23:45 | 49.43388 | 7.49056 | 36770 ft | 446 kts | 125° |
| 2026-05-06 23:46 | 49.40167 | 7.57202 | 36767 ft | 446 kts | 125° |
| 2026-05-06 23:46 | 49.36944 | 7.65328 | 36758 ft | 446 kts | 125° |
| 2026-05-06 23:47 | 49.33712 | 7.73447 | 36759 ft | 446 kts | 125° |
| 2026-05-06 23:47 | 49.30474 | 7.81558 | 36765 ft | 446 kts | 125° |
| 2026-05-06 23:48 | 49.27225 | 7.89672 | 36771 ft | 447 kts | 125° |
| 2026-05-06 23:48 | 49.23965 | 7.97787 | 36771 ft | 448 kts | 125° |
| 2026-05-06 23:49 | 49.20684 | 8.05931 | 36780 ft | 453 kts | 126° |
| 2026-05-06 23:49 | 49.17369 | 8.14136 | 36779 ft | 453 kts | 126° |
| 2026-05-06 23:50 | 49.14052 | 8.22323 | 36781 ft | 453 kts | 126° |
| 2026-05-06 23:50 | 49.09087 | 8.34523 | 36782 ft | 453 kts | 126° |
| 2026-05-06 23:51 | 49.05754 | 8.42683 | 36783 ft | 453 kts | 126° |
| 2026-05-06 23:51 | 49.02418 | 8.50828 | 36784 ft | 453 kts | 126° |
| 2026-05-06 23:52 | 48.98898 | 8.58749 | 36785 ft | 450 kts | 132° |
| 2026-05-06 23:52 | 48.94734 | 8.65791 | 36776 ft | 447 kts | 138° |
| 2026-05-06 23:53 | 48.90450 | 8.72643 | 36775 ft | 447 kts | 137° |
| 2026-05-06 23:53 | 48.86170 | 8.79509 | 36778 ft | 447 kts | 138° |
| 2026-05-06 23:54 | 48.81890 | 8.86354 | 36791 ft | 447 kts | 139° |
| 2026-05-06 23:54 | 48.77602 | 8.93186 | 36792 ft | 447 kts | 139° |
| 2026-05-06 23:55 | 48.73311 | 9.00007 | 36801 ft | 447 kts | 139° |
| 2026-05-06 23:55 | 48.69074 | 9.06733 | 36801 ft | 441 kts | 139° |
| 2026-05-06 23:56 | 48.64820 | 9.13455 | 36803 ft | 443 kts | 139° |
| 2026-05-06 23:56 | 48.60562 | 9.20171 | 36802 ft | 442 kts | 140° |
| 2026-05-06 23:57 | 48.56306 | 9.26866 | 36800 ft | 442 kts | 140° |
| 2026-05-06 23:57 | 48.52040 | 9.33559 | 36794 ft | 442 kts | 140° |
| 2026-05-06 23:58 | 48.47771 | 9.40242 | 36771 ft | 442 kts | 139° |
| 2026-05-06 23:58 | 48.43506 | 9.46899 | 36778 ft | 441 kts | 140° |
| 2026-05-06 23:59 | 48.39242 | 9.53540 | 36794 ft | 441 kts | 140° |
| 2026-05-06 23:59 | 48.34973 | 9.60169 | 36789 ft | 441 kts | 140° |
| 2026-05-07 00:00 | 48.30997 | 9.67178 | 36794 ft | 445 kts | 134° |
| 2026-05-07 00:00 | 48.27120 | 9.74429 | 36799 ft | 445 kts | 134° |
| 2026-05-07 00:01 | 48.23231 | 9.81663 | 36794 ft | 445 kts | 135° |
| 2026-05-07 00:01 | 48.19329 | 9.88885 | 36784 ft | 445 kts | 134° |
| 2026-05-07 00:02 | 48.15459 | 9.96029 | 36803 ft | 441 kts | 135° |
| 2026-05-07 00:02 | 48.11587 | 10.03151 | 36799 ft | 442 kts | 135° |
| 2026-05-07 00:03 | 48.07705 | 10.10275 | 36822 ft | 441 kts | 135° |
| 2026-05-07 00:03 | 48.03820 | 10.17386 | 36829 ft | 441 kts | 135° |
| 2026-05-07 00:04 | 47.99929 | 10.24491 | 36809 ft | 441 kts | 135° |
| 2026-05-07 00:04 | 47.96055 | 10.31547 | 36799 ft | 440 kts | 135° |
| 2026-05-07 00:05 | 47.92155 | 10.38626 | 36800 ft | 441 kts | 135° |
| 2026-05-07 00:05 | 47.88260 | 10.45683 | 36805 ft | 441 kts | 135° |
| 2026-05-07 00:06 | 47.84354 | 10.52740 | 36816 ft | 441 kts | 135° |
| 2026-05-07 00:06 | 47.80446 | 10.59782 | 36779 ft | 441 kts | 135° |
| 2026-05-07 00:07 | 47.76532 | 10.66817 | 36783 ft | 442 kts | 136° |
| 2026-05-07 00:07 | 47.72631 | 10.73810 | 36790 ft | 443 kts | 136° |
| 2026-05-07 00:08 | 47.68694 | 10.80850 | 36788 ft | 443 kts | 136° |
| 2026-05-07 00:08 | 47.64744 | 10.87893 | 36793 ft | 444 kts | 136° |
| 2026-05-07 00:09 | 47.60782 | 10.94940 | 36754 ft | 445 kts | 136° |
| 2026-05-07 00:09 | 47.56821 | 11.01969 | 36780 ft | 445 kts | 136° |
| 2026-05-07 00:10 | 47.52851 | 11.08993 | 36785 ft | 445 kts | 136° |
| 2026-05-07 00:10 | 47.48874 | 11.16013 | 36774 ft | 446 kts | 136° |
| 2026-05-07 00:11 | 47.44897 | 11.23014 | 36778 ft | 445 kts | 136° |
| 2026-05-07 00:11 | 47.40935 | 11.29972 | 36750 ft | 444 kts | 136° |
| 2026-05-07 00:12 | 47.36920 | 11.37001 | 36778 ft | 445 kts | 136° |
| 2026-05-07 00:12 | 47.32946 | 11.43956 | 36807 ft | 444 kts | 136° |
| 2026-05-07 00:13 | 47.28931 | 11.50927 | 36800 ft | 446 kts | 136° |
| 2026-05-07 00:13 | 47.24962 | 11.57831 | 36790 ft | 444 kts | 136° |
| 2026-05-07 00:14 | 47.20958 | 11.64773 | 36762 ft | 446 kts | 137° |
| 2026-05-07 00:14 | 47.16909 | 11.71766 | 36812 ft | 451 kts | 137° |
| 2026-05-07 00:15 | 47.12856 | 11.78751 | 36819 ft | 451 kts | 137° |
| 2026-05-07 00:15 | 47.08871 | 11.85865 | 36826 ft | 453 kts | 131° |
| 2026-05-07 00:16 | 47.05706 | 11.93963 | 36841 ft | 462 kts | 121° |
| 2026-05-07 00:16 | 47.02898 | 12.02457 | 36841 ft | 462 kts | 122° |
| 2026-05-07 00:17 | 47.00072 | 12.10921 | 36842 ft | 462 kts | 122° |
| 2026-05-07 00:17 | 46.97248 | 12.19315 | 36903 ft | 462 kts | 122° |
| 2026-05-07 00:18 | 46.94384 | 12.27803 | 36911 ft | 462 kts | 122° |
| 2026-05-07 00:18 | 46.91529 | 12.36233 | 36906 ft | 465 kts | 122° |
| 2026-05-07 00:19 | 46.88646 | 12.44715 | 36922 ft | 469 kts | 122° |
| 2026-05-07 00:19 | 46.85743 | 12.53240 | 36911 ft | 469 kts | 122° |
| 2026-05-07 00:20 | 46.82828 | 12.61771 | 36912 ft | 469 kts | 122° |
| 2026-05-07 00:20 | 46.79905 | 12.70293 | 36906 ft | 468 kts | 122° |
| 2026-05-07 00:21 | 46.77470 | 12.77368 | 36897 ft | 471 kts | 122° |
| 2026-05-07 00:21 | 46.74536 | 12.85875 | 36905 ft | 467 kts | 123° |
| 2026-05-07 00:22 | 46.71597 | 12.94364 | 36912 ft | 469 kts | 123° |
| 2026-05-07 00:22 | 46.68651 | 13.02846 | 36917 ft | 470 kts | 123° |
| 2026-05-07 00:23 | 46.65690 | 13.11343 | 36919 ft | 472 kts | 123° |
| 2026-05-07 00:23 | 46.62703 | 13.19887 | 36929 ft | 473 kts | 123° |
| 2026-05-07 00:24 | 46.59717 | 13.28412 | 36932 ft | 471 kts | 123° |
| 2026-05-07 00:24 | 46.56523 | 13.36559 | 36933 ft | 463 kts | 131° |
| 2026-05-07 00:25 | 46.52485 | 13.43706 | 36931 ft | 455 kts | 142° |
| 2026-05-07 00:25 | 46.47978 | 13.50259 | 36949 ft | 459 kts | 141° |
| 2026-05-07 00:26 | 46.43496 | 13.56844 | 36954 ft | 456 kts | 141° |
| 2026-05-07 00:26 | 46.39021 | 13.63399 | 36947 ft | 456 kts | 141° |
| 2026-05-07 00:27 | 46.34545 | 13.69944 | 36940 ft | 457 kts | 141° |
| 2026-05-07 00:27 | 46.30063 | 13.76479 | 36947 ft | 458 kts | 141° |
| 2026-05-07 00:28 | 46.25564 | 13.83014 | 36952 ft | 458 kts | 141° |
| 2026-05-07 00:28 | 46.21065 | 13.89538 | 36953 ft | 459 kts | 141° |
| 2026-05-07 00:29 | 46.16563 | 13.96050 | 36951 ft | 458 kts | 141° |
| 2026-05-07 00:30 | 46.07578 | 14.08997 | 36965 ft | 457 kts | 141° |
| 2026-05-07 00:30 | 46.03074 | 14.15463 | 36967 ft | 457 kts | 141° |
| 2026-05-07 00:31 | 45.98565 | 14.21919 | 36971 ft | 457 kts | 141° |
| 2026-05-07 00:31 | 45.94061 | 14.28355 | 36967 ft | 456 kts | 141° |
| 2026-05-07 00:32 | 45.89573 | 14.34754 | 36932 ft | 454 kts | 141° |
| 2026-05-07 00:32 | 45.85043 | 14.41188 | 36972 ft | 459 kts | 141° |
| 2026-05-07 00:33 | 45.80535 | 14.47587 | 36973 ft | 458 kts | 141° |
| 2026-05-07 00:33 | 45.75999 | 14.54003 | 36970 ft | 458 kts | 141° |
| 2026-05-07 00:34 | 45.71463 | 14.60407 | 36965 ft | 458 kts | 141° |
| 2026-05-07 00:34 | 45.66918 | 14.66804 | 36960 ft | 458 kts | 141° |
| 2026-05-07 00:35 | 45.62383 | 14.73175 | 36951 ft | 456 kts | 141° |
| 2026-05-07 00:35 | 45.57854 | 14.79524 | 36968 ft | 456 kts | 141° |
| 2026-05-07 00:36 | 45.53316 | 14.85865 | 36964 ft | 457 kts | 141° |
| 2026-05-07 00:36 | 45.48767 | 14.92210 | 36978 ft | 457 kts | 141° |
| 2026-05-07 00:37 | 45.44214 | 14.98541 | 36964 ft | 458 kts | 141° |
| 2026-05-07 00:37 | 45.39680 | 15.04836 | 36963 ft | 458 kts | 141° |
| 2026-05-07 00:38 | 45.35107 | 15.11171 | 36961 ft | 458 kts | 141° |
| 2026-05-07 00:38 | 45.30563 | 15.17453 | 36955 ft | 455 kts | 142° |
| 2026-05-07 00:39 | 45.26013 | 15.23721 | 36954 ft | 455 kts | 142° |
| 2026-05-07 00:39 | 45.21459 | 15.29981 | 36952 ft | 455 kts | 142° |
| 2026-05-07 00:40 | 45.16907 | 15.36226 | 36953 ft | 455 kts | 142° |
| 2026-05-07 00:40 | 45.12356 | 15.42455 | 36942 ft | 454 kts | 142° |
| 2026-05-07 00:41 | 45.07823 | 15.48645 | 36957 ft | 452 kts | 142° |
| 2026-05-07 00:41 | 45.03297 | 15.54810 | 36943 ft | 451 kts | 142° |
| 2026-05-07 00:42 | 44.98810 | 15.60906 | 36970 ft | 451 kts | 142° |
| 2026-05-07 00:42 | 44.94265 | 15.67066 | 36963 ft | 453 kts | 142° |
| 2026-05-07 00:43 | 44.89719 | 15.73217 | 36972 ft | 453 kts | 142° |
| 2026-05-07 00:43 | 44.85177 | 15.79350 | 36940 ft | 450 kts | 142° |
| 2026-05-07 00:44 | 44.80653 | 15.85440 | 36979 ft | 450 kts | 142° |
| 2026-05-07 00:44 | 44.76119 | 15.91529 | 36981 ft | 450 kts | 142° |
| 2026-05-07 00:45 | 44.71585 | 15.97607 | 36986 ft | 451 kts | 142° |
| 2026-05-07 00:45 | 44.67045 | 16.03682 | 36984 ft | 450 kts | 142° |
| 2026-05-07 00:46 | 44.62514 | 16.09726 | 36970 ft | 449 kts | 142° |
| 2026-05-07 00:46 | 44.57980 | 16.15763 | 36976 ft | 448 kts | 142° |
| 2026-05-07 00:47 | 44.53490 | 16.21728 | 36975 ft | 447 kts | 142° |
| 2026-05-07 00:47 | 44.48976 | 16.27709 | 36971 ft | 446 kts | 142° |
| 2026-05-07 00:48 | 44.44438 | 16.33708 | 36958 ft | 450 kts | 142° |
| 2026-05-07 00:48 | 44.39873 | 16.39730 | 36993 ft | 450 kts | 142° |
| 2026-05-07 00:49 | 44.35321 | 16.45727 | 36994 ft | 449 kts | 142° |
| 2026-05-07 00:49 | 44.30768 | 16.51706 | 36999 ft | 449 kts | 142° |
| 2026-05-07 00:50 | 44.26202 | 16.57690 | 37005 ft | 450 kts | 142° |
| 2026-05-07 00:50 | 44.21628 | 16.63668 | 36994 ft | 450 kts | 141° |
| 2026-05-07 00:51 | 44.17082 | 16.69598 | 37000 ft | 450 kts | 141° |
| 2026-05-07 00:51 | 44.12499 | 16.75564 | 37014 ft | 452 kts | 141° |
| 2026-05-07 00:52 | 44.07904 | 16.81534 | 37025 ft | 452 kts | 141° |
| 2026-05-07 00:52 | 44.03300 | 16.87500 | 37019 ft | 453 kts | 141° |
| 2026-05-07 00:53 | 43.98689 | 16.93460 | 37035 ft | 453 kts | 141° |
| 2026-05-07 00:53 | 43.94065 | 16.99427 | 37039 ft | 454 kts | 141° |
| 2026-05-07 00:54 | 43.89449 | 17.05372 | 37036 ft | 452 kts | 141° |
| 2026-05-07 00:54 | 43.84838 | 17.11294 | 37043 ft | 452 kts | 141° |
| 2026-05-07 00:55 | 43.80215 | 17.17214 | 37047 ft | 454 kts | 141° |
| 2026-05-07 00:55 | 43.75616 | 17.23097 | 37045 ft | 453 kts | 141° |
| 2026-05-07 00:56 | 43.70987 | 17.29007 | 37047 ft | 453 kts | 141° |
| 2026-05-07 00:56 | 43.66345 | 17.34916 | 37057 ft | 453 kts | 141° |
| 2026-05-07 00:57 | 43.61704 | 17.40813 | 37039 ft | 454 kts | 141° |
| 2026-05-07 00:57 | 43.57059 | 17.46701 | 37046 ft | 454 kts | 141° |
| 2026-05-07 00:58 | 43.52410 | 17.52582 | 37048 ft | 454 kts | 141° |
| 2026-05-07 00:58 | 43.47758 | 17.58454 | 37053 ft | 453 kts | 141° |
| 2026-05-07 00:59 | 43.40773 | 17.67246 | 37050 ft | 454 kts | 141° |
| 2026-05-07 01:00 | 43.36103 | 17.73112 | 37058 ft | 455 kts | 141° |
| 2026-05-07 01:00 | 43.31425 | 17.78978 | 37045 ft | 456 kts | 141° |
| 2026-05-07 01:01 | 43.26741 | 17.84837 | 37018 ft | 455 kts | 142° |
| 2026-05-07 01:01 | 43.21928 | 17.90478 | 37022 ft | 456 kts | 142° |
| 2026-05-07 01:02 | 43.17139 | 17.96161 | 37027 ft | 456 kts | 142° |
| 2026-05-07 01:02 | 43.12368 | 18.01805 | 37041 ft | 456 kts | 143° |
| 2026-05-07 01:03 | 43.07556 | 18.07465 | 37055 ft | 456 kts | 143° |
| 2026-05-07 01:03 | 43.02735 | 18.13117 | 37068 ft | 456 kts | 143° |
| 2026-05-07 01:04 | 42.97908 | 18.18762 | 37077 ft | 457 kts | 143° |
| 2026-05-07 01:04 | 42.93082 | 18.24393 | 37074 ft | 456 kts | 143° |
| 2026-05-07 01:05 | 42.88261 | 18.30008 | 37086 ft | 456 kts | 143° |
| 2026-05-07 01:05 | 42.83434 | 18.35616 | 37088 ft | 456 kts | 143° |
| 2026-05-07 01:06 | 42.78612 | 18.41206 | 37091 ft | 455 kts | 143° |
| 2026-05-07 01:06 | 42.73789 | 18.46787 | 37076 ft | 455 kts | 143° |
| 2026-05-07 01:07 | 42.68990 | 18.52327 | 37082 ft | 455 kts | 143° |
| 2026-05-07 01:07 | 42.64158 | 18.57894 | 37084 ft | 455 kts | 143° |
| 2026-05-07 01:08 | 42.59312 | 18.63465 | 37089 ft | 456 kts | 143° |
| 2026-05-07 01:08 | 42.54472 | 18.69019 | 37096 ft | 456 kts | 143° |
| 2026-05-07 01:09 | 42.49620 | 18.74574 | 37106 ft | 457 kts | 143° |
| 2026-05-07 01:09 | 42.44758 | 18.80131 | 37081 ft | 457 kts | 143° |
| 2026-05-07 01:10 | 42.40707 | 18.84747 | 37083 ft | 458 kts | 143° |
| 2026-05-07 01:10 | 42.35049 | 18.91184 | 37078 ft | 457 kts | 143° |
| 2026-05-07 01:11 | 42.30177 | 18.96716 | 37085 ft | 458 kts | 143° |
| 2026-05-07 01:11 | 42.26086 | 19.01350 | 37083 ft | 458 kts | 143° |
| 2026-05-07 01:12 | 42.21200 | 19.06877 | 37093 ft | 459 kts | 143° |
| 2026-05-07 01:12 | 42.16305 | 19.12401 | 37099 ft | 459 kts | 143° |
| 2026-05-07 01:13 | 42.11402 | 19.17921 | 37102 ft | 460 kts | 143° |
| 2026-05-07 01:13 | 42.06496 | 19.23437 | 37101 ft | 460 kts | 143° |
| 2026-05-07 01:14 | 42.01614 | 19.28913 | 37107 ft | 460 kts | 143° |
| 2026-05-07 01:14 | 41.96694 | 19.34418 | 37097 ft | 461 kts | 143° |
| 2026-05-07 01:15 | 41.91773 | 19.39914 | 37105 ft | 460 kts | 143° |
| 2026-05-07 01:15 | 41.86849 | 19.45402 | 37107 ft | 460 kts | 143° |
| 2026-05-07 01:16 | 41.81924 | 19.50879 | 37083 ft | 460 kts | 143° |
| 2026-05-07 01:16 | 41.76997 | 19.56347 | 37089 ft | 460 kts | 143° |
| 2026-05-07 01:17 | 41.72071 | 19.61804 | 37079 ft | 460 kts | 143° |
| 2026-05-07 01:17 | 41.67142 | 19.67254 | 37093 ft | 459 kts | 143° |
| 2026-05-07 01:18 | 41.62211 | 19.72692 | 37091 ft | 460 kts | 143° |
| 2026-05-07 01:18 | 41.57271 | 19.78130 | 37095 ft | 461 kts | 143° |
| 2026-05-07 01:19 | 41.52315 | 19.83574 | 37097 ft | 462 kts | 143° |
| 2026-05-07 01:19 | 41.47350 | 19.89018 | 37099 ft | 462 kts | 143° |
| 2026-05-07 01:20 | 41.42386 | 19.94450 | 37105 ft | 462 kts | 143° |
| 2026-05-07 01:20 | 41.37406 | 19.99887 | 37105 ft | 462 kts | 143° |
| 2026-05-07 01:21 | 41.32428 | 20.05311 | 37094 ft | 462 kts | 143° |
| 2026-05-07 01:21 | 41.27498 | 20.10673 | 37097 ft | 461 kts | 143° |
| 2026-05-07 01:22 | 41.22523 | 20.16071 | 37094 ft | 464 kts | 143° |
| 2026-05-07 01:22 | 41.17515 | 20.21494 | 37095 ft | 463 kts | 143° |
| 2026-05-07 01:23 | 41.12515 | 20.26900 | 37093 ft | 463 kts | 143° |
| 2026-05-07 01:23 | 41.07511 | 20.32297 | 37096 ft | 464 kts | 143° |
| 2026-05-07 01:24 | 41.02501 | 20.37690 | 37093 ft | 463 kts | 143° |
| 2026-05-07 01:24 | 40.97498 | 20.43065 | 37082 ft | 463 kts | 143° |
| 2026-05-07 01:25 | 40.92498 | 20.48424 | 37089 ft | 464 kts | 143° |
| 2026-05-07 01:25 | 40.87449 | 20.53825 | 37087 ft | 467 kts | 143° |
| 2026-05-07 01:26 | 40.82403 | 20.59216 | 37089 ft | 466 kts | 143° |
| 2026-05-07 01:26 | 40.77355 | 20.64596 | 37080 ft | 466 kts | 143° |
| 2026-05-07 01:27 | 40.72303 | 20.69968 | 37078 ft | 467 kts | 143° |
| 2026-05-07 01:27 | 40.67248 | 20.75332 | 37077 ft | 467 kts | 143° |
| 2026-05-07 01:28 | 40.62219 | 20.80659 | 37081 ft | 467 kts | 144° |
| 2026-05-07 01:28 | 40.57144 | 20.86024 | 37071 ft | 468 kts | 143° |
| 2026-05-07 01:29 | 40.52067 | 20.91386 | 37074 ft | 469 kts | 143° |
| 2026-05-07 01:29 | 40.46980 | 20.96766 | 37080 ft | 470 kts | 142° |
| 2026-05-07 01:30 | 40.42151 | 21.02573 | 37081 ft | 471 kts | 139° |
| 2026-05-07 01:30 | 40.37383 | 21.08469 | 37070 ft | 470 kts | 139° |
| 2026-05-07 01:31 | 40.32595 | 21.14285 | 37070 ft | 469 kts | 139° |
| 2026-05-07 01:31 | 40.27765 | 21.20101 | 37067 ft | 472 kts | 139° |
| 2026-05-07 01:32 | 40.22960 | 21.25872 | 37068 ft | 471 kts | 139° |
| 2026-05-07 01:32 | 40.18124 | 21.31667 | 37055 ft | 471 kts | 139° |
| 2026-05-07 01:33 | 40.13286 | 21.37453 | 37065 ft | 472 kts | 139° |
| 2026-05-07 01:33 | 40.08438 | 21.43239 | 37059 ft | 472 kts | 139° |
| 2026-05-07 01:34 | 40.03583 | 21.49021 | 37066 ft | 472 kts | 139° |
| 2026-05-07 01:34 | 39.98732 | 21.54787 | 37058 ft | 472 kts | 139° |
| 2026-05-07 01:35 | 39.93874 | 21.60551 | 37060 ft | 472 kts | 139° |
| 2026-05-07 01:35 | 39.89012 | 21.66307 | 37057 ft | 472 kts | 140° |
| 2026-05-07 01:36 | 39.84154 | 21.72048 | 37058 ft | 472 kts | 140° |
| 2026-05-07 01:36 | 39.79323 | 21.77743 | 37059 ft | 472 kts | 140° |
| 2026-05-07 01:37 | 39.74458 | 21.83469 | 37035 ft | 472 kts | 139° |
| 2026-05-07 01:37 | 39.69591 | 21.89185 | 37036 ft | 472 kts | 139° |
| 2026-05-07 01:38 | 39.64716 | 21.94900 | 37038 ft | 472 kts | 140° |
| 2026-05-07 01:38 | 39.59836 | 22.00609 | 37037 ft | 472 kts | 140° |
| 2026-05-07 01:39 | 39.54949 | 22.06315 | 37036 ft | 473 kts | 140° |
| 2026-05-07 01:39 | 39.50059 | 22.12013 | 37039 ft | 473 kts | 140° |
| 2026-05-07 01:40 | 39.45160 | 22.17710 | 37027 ft | 474 kts | 140° |
| 2026-05-07 01:40 | 39.40250 | 22.23409 | 37030 ft | 474 kts | 140° |
| 2026-05-07 01:41 | 39.35335 | 22.29103 | 37034 ft | 475 kts | 140° |
| 2026-05-07 01:41 | 39.30413 | 22.34793 | 37037 ft | 475 kts | 140° |
| 2026-05-07 01:42 | 39.25480 | 22.40485 | 37045 ft | 476 kts | 140° |
| 2026-05-07 01:42 | 39.20535 | 22.46178 | 37057 ft | 476 kts | 140° |
| 2026-05-07 01:43 | 39.15617 | 22.51831 | 37046 ft | 477 kts | 140° |
| 2026-05-07 01:43 | 39.10654 | 22.57524 | 37051 ft | 478 kts | 140° |
| 2026-05-07 01:44 | 39.05665 | 22.63180 | 37065 ft | 478 kts | 141° |
| 2026-05-07 01:44 | 39.00640 | 22.68803 | 37066 ft | 478 kts | 141° |
| 2026-05-07 01:45 | 38.95632 | 22.74419 | 37074 ft | 478 kts | 140° |
| 2026-05-07 01:45 | 38.90625 | 22.80031 | 37047 ft | 478 kts | 140° |
| 2026-05-07 01:46 | 38.85619 | 22.85628 | 37047 ft | 478 kts | 140° |
| 2026-05-07 01:46 | 38.80598 | 22.91229 | 37044 ft | 478 kts | 140° |
| 2026-05-07 01:47 | 38.75574 | 22.96824 | 37054 ft | 479 kts | 140° |
| 2026-05-07 01:47 | 38.70542 | 23.02415 | 37058 ft | 479 kts | 141° |
| 2026-05-07 01:48 | 38.65505 | 23.08002 | 37058 ft | 479 kts | 141° |
| 2026-05-07 01:48 | 38.60492 | 23.13551 | 37056 ft | 480 kts | 140° |
| 2026-05-07 01:49 | 38.55439 | 23.19133 | 37057 ft | 480 kts | 141° |
| 2026-05-07 01:49 | 38.50382 | 23.24711 | 37068 ft | 480 kts | 141° |
| 2026-05-07 01:50 | 38.45321 | 23.30282 | 37066 ft | 480 kts | 141° |
| 2026-05-07 01:50 | 38.40269 | 23.35831 | 37061 ft | 480 kts | 141° |
| 2026-05-07 01:51 | 38.35212 | 23.41375 | 37061 ft | 479 kts | 141° |
| 2026-05-07 01:51 | 38.30144 | 23.46920 | 37065 ft | 481 kts | 141° |
| 2026-05-07 01:52 | 38.25064 | 23.52468 | 37067 ft | 481 kts | 141° |
| 2026-05-07 01:52 | 38.19990 | 23.58000 | 37071 ft | 480 kts | 141° |
| 2026-05-07 01:53 | 38.14909 | 23.63529 | 37075 ft | 480 kts | 141° |
| 2026-05-07 01:53 | 38.09864 | 23.69006 | 37073 ft | 480 kts | 141° |
| 2026-05-07 01:54 | 38.04788 | 23.74510 | 37071 ft | 480 kts | 141° |
| 2026-05-07 01:54 | 37.99698 | 23.80016 | 37063 ft | 481 kts | 141° |
| 2026-05-07 01:55 | 37.94593 | 23.85530 | 37071 ft | 482 kts | 141° |
| 2026-05-07 01:55 | 37.89480 | 23.91040 | 37074 ft | 482 kts | 141° |
| 2026-05-07 01:56 | 37.84364 | 23.96544 | 37077 ft | 483 kts | 141° |
| 2026-05-07 01:56 | 37.79237 | 24.02048 | 37084 ft | 483 kts | 141° |
| 2026-05-07 01:57 | 37.74109 | 24.07544 | 37103 ft | 484 kts | 141° |
| 2026-05-07 01:57 | 37.71534 | 24.10299 | 36974 ft | 485 kts | 141° |
| 2026-05-07 01:57 | 37.68957 | 24.13054 | 36646 ft | 485 kts | 141° |
| 2026-05-07 01:57 | 37.66374 | 24.15814 | 35990 ft | 487 kts | 141° |
| 2026-05-07 01:58 | 37.63778 | 24.18584 | 35160 ft | 491 kts | 141° |
| 2026-05-07 01:58 | 37.61203 | 24.21328 | 34441 ft | 491 kts | 141° |
| 2026-05-07 01:58 | 37.58581 | 24.24120 | 33480 ft | 495 kts | 141° |
| 2026-05-07 01:58 | 37.55951 | 24.26919 | 32725 ft | 494 kts | 141° |
| 2026-05-07 01:59 | 37.53336 | 24.29699 | 31884 ft | 495 kts | 140° |
| 2026-05-07 01:59 | 37.50695 | 24.32504 | 31161 ft | 493 kts | 140° |
| 2026-05-07 01:59 | 37.48086 | 24.35272 | 30572 ft | 488 kts | 140° |
| 2026-05-07 01:59 | 37.45497 | 24.38017 | 29846 ft | 486 kts | 140° |
| 2026-05-07 02:00 | 37.42919 | 24.40747 | 29283 ft | 481 kts | 140° |
| 2026-05-07 02:00 | 37.40374 | 24.43440 | 28683 ft | 476 kts | 140° |
| 2026-05-07 02:00 | 37.37850 | 24.46110 | 28024 ft | 473 kts | 140° |
| 2026-05-07 02:00 | 37.35342 | 24.48759 | 27396 ft | 469 kts | 140° |
| 2026-05-07 02:01 | 37.33657 | 24.50536 | 26970 ft | 467 kts | 140° |
| 2026-05-07 02:01 | 37.31214 | 24.53113 | 26351 ft | 463 kts | 140° |
| 2026-05-07 02:01 | 37.28718 | 24.55743 | 25718 ft | 460 kts | 140° |
| 2026-05-07 02:01 | 37.26270 | 24.58320 | 25074 ft | 459 kts | 140° |
| 2026-05-07 02:02 | 37.23864 | 24.60850 | 24437 ft | 457 kts | 140° |
| 2026-05-07 02:02 | 37.21436 | 24.63402 | 23813 ft | 455 kts | 140° |
| 2026-05-07 02:02 | 37.19018 | 24.65940 | 23171 ft | 451 kts | 140° |
| 2026-05-07 02:02 | 37.16623 | 24.68454 | 22541 ft | 447 kts | 140° |
| 2026-05-07 02:03 | 37.14246 | 24.70945 | 21902 ft | 443 kts | 140° |
| 2026-05-07 02:03 | 37.11892 | 24.73411 | 21260 ft | 439 kts | 140° |
| 2026-05-07 02:03 | 37.09553 | 24.75859 | 20606 ft | 437 kts | 140° |
| 2026-05-07 02:03 | 37.07227 | 24.78291 | 19994 ft | 434 kts | 140° |
| 2026-05-07 02:04 | 37.04916 | 24.80705 | 19357 ft | 431 kts | 140° |
| 2026-05-07 02:04 | 37.02619 | 24.83103 | 18737 ft | 429 kts | 140° |
| 2026-05-07 02:04 | 37.00328 | 24.85492 | 18076 ft | 426 kts | 140° |
| 2026-05-07 02:04 | 36.98055 | 24.87860 | 17362 ft | 423 kts | 140° |
| 2026-05-07 02:05 | 36.95794 | 24.90215 | 16667 ft | 421 kts | 140° |
| 2026-05-07 02:05 | 36.93560 | 24.92539 | 16053 ft | 416 kts | 140° |
| 2026-05-07 02:05 | 36.91352 | 24.94834 | 15468 ft | 410 kts | 140° |
| 2026-05-07 02:05 | 36.89173 | 24.97099 | 14897 ft | 405 kts | 140° |
| 2026-05-07 02:06 | 36.87034 | 24.99319 | 14445 ft | 396 kts | 140° |
| 2026-05-07 02:06 | 36.84916 | 25.01516 | 13816 ft | 394 kts | 140° |
| 2026-05-07 02:06 | 36.82818 | 25.03691 | 13243 ft | 389 kts | 140° |
| 2026-05-07 02:06 | 36.80794 | 25.05787 | 13005 ft | 375 kts | 140° |
| 2026-05-07 02:07 | 36.78822 | 25.07828 | 12761 ft | 363 kts | 140° |
| 2026-05-07 02:07 | 36.75026 | 25.11753 | 12259 ft | 352 kts | 140° |
| 2026-05-07 02:07 | 36.73142 | 25.13701 | 11918 ft | 352 kts | 140° |
| 2026-05-07 02:08 | 36.71271 | 25.15632 | 11549 ft | 347 kts | 140° |
| 2026-05-07 02:08 | 36.69425 | 25.17537 | 11179 ft | 342 kts | 140° |
| 2026-05-07 02:08 | 36.67609 | 25.19410 | 10820 ft | 336 kts | 140° |
| 2026-05-07 02:08 | 36.65819 | 25.21253 | 10453 ft | 331 kts | 140° |
| 2026-05-07 02:09 | 36.64055 | 25.23070 | 10098 ft | 327 kts | 140° |
| 2026-05-07 02:09 | 36.62316 | 25.24859 | 9735 ft | 322 kts | 140° |
| 2026-05-07 02:09 | 36.60606 | 25.26618 | 9391 ft | 316 kts | 140° |
| 2026-05-07 02:09 | 36.58928 | 25.28344 | 9052 ft | 310 kts | 140° |
| 2026-05-07 02:10 | 36.57274 | 25.30044 | 8720 ft | 305 kts | 140° |
| 2026-05-07 02:10 | 36.55648 | 25.31714 | 8392 ft | 301 kts | 140° |
| 2026-05-07 02:10 | 36.54047 | 25.33356 | 8068 ft | 296 kts | 140° |
| 2026-05-07 02:10 | 36.52459 | 25.34983 | 7743 ft | 295 kts | 140° |
| 2026-05-07 02:11 | 36.50886 | 25.36596 | 7426 ft | 292 kts | 140° |
| 2026-05-07 02:11 | 36.49328 | 25.38194 | 7065 ft | 290 kts | 140° |
| 2026-05-07 02:11 | 36.47769 | 25.39792 | 6606 ft | 292 kts | 140° |
| 2026-05-07 02:11 | 36.46209 | 25.41391 | 6094 ft | 289 kts | 140° |
| 2026-05-07 02:12 | 36.44668 | 25.42983 | 5614 ft | 286 kts | 140° |
| 2026-05-07 02:12 | 36.43152 | 25.44551 | 5192 ft | 281 kts | 140° |
| 2026-05-07 02:12 | 36.41690 | 25.46071 | 4770 ft | 275 kts | 140° |
| 2026-05-07 02:12 | 36.40220 | 25.47604 | 4332 ft | 270 kts | 140° |
| 2026-05-07 02:13 | 36.38879 | 25.49165 | 3913 ft | 266 kts | 132° |
| 2026-05-07 02:13 | 36.37787 | 25.50970 | 3526 ft | 259 kts | 122° |
| 2026-05-07 02:13 | 36.36848 | 25.52839 | 3174 ft | 251 kts | 120° |
| 2026-05-07 02:13 | 36.35992 | 25.54648 | 3083 ft | 236 kts | 120° |
| 2026-05-07 02:14 | 36.35169 | 25.56343 | 2980 ft | 223 kts | 121° |
| 2026-05-07 02:14 | 36.34391 | 25.57934 | 2962 ft | 207 kts | 121° |
| 2026-05-07 02:14 | 36.33670 | 25.59404 | 2965 ft | 194 kts | 121° |
| 2026-05-07 02:14 | 36.32961 | 25.60854 | 2990 ft | 193 kts | 121° |
| 2026-05-07 02:15 | 36.32270 | 25.62263 | 2968 ft | 191 kts | 121° |
| 2026-05-07 02:15 | 36.31367 | 25.63443 | 2969 ft | 191 kts | 153° |
| 2026-05-07 02:15 | 36.30071 | 25.63698 | 2968 ft | 192 kts | 192° |
| 2026-05-07 02:15 | 36.28944 | 25.62900 | 2967 ft | 190 kts | 231° |
| 2026-05-07 02:16 | 36.28482 | 25.61405 | 2968 ft | 189 kts | 270° |
| 2026-05-07 02:16 | 36.28832 | 25.59856 | 2929 ft | 189 kts | 295° |
| 2026-05-07 02:16 | 36.29389 | 25.58405 | 2692 ft | 184 kts | 296° |
| 2026-05-07 02:16 | 36.29944 | 25.56997 | 2416 ft | 181 kts | 297° |
| 2026-05-07 02:17 | 36.30537 | 25.55674 | 2152 ft | 168 kts | 301° |
| 2026-05-07 02:17 | 36.31161 | 25.54480 | 2004 ft | 163 kts | 305° |
| 2026-05-07 02:17 | 36.31819 | 25.53414 | 1732 ft | 150 kts | 307° |
| 2026-05-07 02:17 | 36.32465 | 25.52439 | 1451 ft | 143 kts | 310° |
| 2026-05-07 02:18 | 36.33178 | 25.51539 | 1196 ft | 147 kts | 316° |
| 2026-05-07 02:18 | 36.33970 | 25.50767 | 992 ft | 145 kts | 327° |
| 2026-05-07 02:18 | 36.34888 | 25.50222 | 904 ft | 148 kts | 340° |
| 2026-05-07 02:18 | 36.35857 | 25.49825 | 748 ft | 148 kts | 339° |
| 2026-05-07 02:19 | 36.36824 | 25.49368 | 563 ft | 150 kts | 341° |
| 2026-05-07 02:19 | 36.37795 | 25.48912 | 304 ft | 150 kts | 341° |
| 2026-05-07 02:19 | 36.38766 | 25.48456 | 124 ft | 149 kts | 341° |
| 2026-05-07 02:19 | 36.39713 | 25.48015 | 72 ft | 137 kts | 339° |
| 2026-05-07 02:20 | 36.40421 | 25.47678 | 89 ft | 78 kts | 339° |
| 2026-05-07 02:20 | 36.40751 | 25.47524 | 91 ft | 22 kts | 340° |
| 2026-05-07 02:20 | 36.40838 | 25.47479 | 92 ft | 15 kts | 324° |
| 2026-05-07 02:20 | 36.40834 | 25.47397 | 91 ft | 12 kts | 253° |
| 2026-05-07 02:21 | 36.40775 | 25.47343 | 94 ft | 12 kts | 166° |
| 2026-05-07 02:21 | 36.40685 | 25.47387 | 93 ft | 15 kts | 157° |
| 2026-05-07 02:21 | 36.40579 | 25.47434 | 93 ft | 18 kts | 160° |
| 2026-05-07 02:21 | 36.40467 | 25.47490 | 92 ft | 15 kts | 157° |
| 2026-05-07 02:22 | 36.40414 | 25.47436 | 92 ft | 9 kts | 272° |
| 2026-05-07 02:22 | 36.40431 | 25.47375 | 90 ft | 0 kts | 242° |
| 2026-05-07 02:22 | 36.40423 | 25.47356 | 93 ft | 5 kts | 248° |
| 2026-05-07 02:22 | 36.40420 | 25.47344 | 93 ft | 0 kts | 246° |
| 2026-05-07 02:23 | 36.40419 | 25.47341 | 93 ft | 0 kts | 247° |